Etusivu
METAR-TAF:

METAR-TAF

Lentoasemat :

Dubai, Yhdistyneet arabiemiirikunnat

Dubain kansainvälinen lentoasema

Leveyspiiri: 25-15-10N, Pituuspiiri: 055-21-52E, korkeus merenpinnasta: 8 m

Tämänhetkinen sää

Tämä raportti tehtiin 1 tunti ja 5 minuuttia sitten, kello 18.00 UTC
Tuuli 5 kn lännestä/luoteesta
Lämpötila 36°C
Kosteus 42%
Ilmanpaine 1000 hPa
Näkyvyys 10 km tai enemmän
ei pilviä alle 1500 m:ssä eikä cumulonimbus-pilviä

METAR: OMDB 231800Z 30005KT CAVOK 36/21 Q1000 NOSIG

Aika: 23:05 (19:05 UTC)

Sääennuste

Tämä raportti tehtiin 2 tuntia ja 13 minuuttia sitten, kello 16.52 UTC
Ennuste voimassa 23. päivästä klo 18 UTC - 25. päivään klo 00 UTC
Tuuli 5 kn etelästä
Näkyvyys: 8000 m
Tulossa
24. päivästä klo 07 UTC - 24. päivään klo 09 UTC
Tuuli 12 kn lännestä/luoteesta
Tulossa
24. päivästä klo 16 UTC - 24. päivään klo 18 UTC
Tuuli 5 kn etelästä

TAF: OMDB 231652Z 2318/2500 19005KT 8000 NSC BECMG 2407/2409 29012KT BECMG 2416/2418 17005KT

Säähavainnot ja -ennusteet yli 4000 lentoasemalta (METAR- ja TAF-raportit).

Käytössä olevat sääasemat on merkitty karttaan keltaisilla ja punaisilla pisteillä.

Aseta hiiri pisteen päälle nähdäksesi sääaseman nimen.

Klikkaa sitten nähdäksesi säähavainnot ja -ennusteet.

Kartan vaihtaminen: klikkaa mustalla rastilla varustettuja vihreitä pisteitä, niin voit zoomata sisään; viivalla varustettua vihreää pistettä, niin voit zoomata ulos tai vihreitä nuolia, niin pääset viereisille kartoille.


METAR-TAF: